sensor_id;sensor_type;location;lat;lon;timestamp;temperature;humidity
27567;DHT22;15006;48.584;9.186;2023-04-25T00:00:30;5.00;96.00
27567;DHT22;15006;48.584;9.186;2023-04-25T00:02:56;4.90;96.00
27567;DHT22;15006;48.584;9.186;2023-04-25T00:05:23;4.90;96.00
27567;DHT22;15006;48.584;9.186;2023-04-25T00:07:49;5.00;96.10
27567;DHT22;15006;48.584;9.186;2023-04-25T00:10:16;4.90;96.20
27567;DHT22;15006;48.584;9.186;2023-04-25T00:12:42;4.90;96.30
27567;DHT22;15006;48.584;9.186;2023-04-25T00:15:08;5.00;96.30
27567;DHT22;15006;48.584;9.186;2023-04-25T00:17:35;4.90;96.20
27567;DHT22;15006;48.584;9.186;2023-04-25T00:20:01;4.90;96.00
27567;DHT22;15006;48.584;9.186;2023-04-25T00:22:31;4.90;96.00
27567;DHT22;15006;48.584;9.186;2023-04-25T00:24:57;4.90;96.20
27567;DHT22;15006;48.584;9.186;2023-04-25T00:27:26;4.90;96.30
27567;DHT22;15006;48.584;9.186;2023-04-25T00:29:52;4.90;96.60
27567;DHT22;15006;48.584;9.186;2023-04-25T00:32:18;4.90;96.60
27567;DHT22;15006;48.584;9.186;2023-04-25T00:34:44;4.90;96.70
27567;DHT22;15006;48.584;9.186;2023-04-25T00:37:10;4.90;96.80
27567;DHT22;15006;48.584;9.186;2023-04-25T00:39:37;4.80;96.90
27567;DHT22;15006;48.584;9.186;2023-04-25T00:42:03;4.90;96.90
27567;DHT22;15006;48.584;9.186;2023-04-25T00:44:30;4.80;96.80
27567;DHT22;15006;48.584;9.186;2023-04-25T00:46:57;4.90;97.00
27567;DHT22;15006;48.584;9.186;2023-04-25T00:49:23;4.90;97.00
27567;DHT22;15006;48.584;9.186;2023-04-25T00:51:50;4.90;97.10
27567;DHT22;15006;48.584;9.186;2023-04-25T00:54:16;4.90;96.90
27567;DHT22;15006;48.584;9.186;2023-04-25T00:56:42;4.90;97.00
27567;DHT22;15006;48.584;9.186;2023-04-25T00:59:10;4.90;96.90
27567;DHT22;15006;48.584;9.186;2023-04-25T01:01:38;4.90;96.80
27567;DHT22;15006;48.584;9.186;2023-04-25T01:04:05;5.00;96.80
27567;DHT22;15006;48.584;9.186;2023-04-25T01:06:31;5.00;96.80
27567;DHT22;15006;48.584;9.186;2023-04-25T01:08:57;5.00;96.70
27567;DHT22;15006;48.584;9.186;2023-04-25T01:11:25;5.00;96.80
27567;DHT22;15006;48.584;9.186;2023-04-25T01:13:51;5.00;96.80
27567;DHT22;15006;48.584;9.186;2023-04-25T01:16:17;5.10;96.80
27567;DHT22;15006;48.584;9.186;2023-04-25T01:18:43;5.10;96.80
27567;DHT22;15006;48.584;9.186;2023-04-25T01:21:11;5.00;96.70
27567;DHT22;15006;48.584;9.186;2023-04-25T01:23:40;5.00;96.70
27567;DHT22;15006;48.584;9.186;2023-04-25T01:26:08;5.10;96.70
27567;DHT22;15006;48.584;9.186;2023-04-25T01:28:34;5.10;96.60
27567;DHT22;15006;48.584;9.186;2023-04-25T01:31:01;5.10;96.50
27567;DHT22;15006;48.584;9.186;2023-04-25T01:33:27;5.00;96.80
27567;DHT22;15006;48.584;9.186;2023-04-25T01:35:54;5.00;96.50
27567;DHT22;15006;48.584;9.186;2023-04-25T01:38:20;5.00;96.50
27567;DHT22;15006;48.584;9.186;2023-04-25T01:40:49;5.00;96.40
27567;DHT22;15006;48.584;9.186;2023-04-25T01:43:16;4.90;96.50
27567;DHT22;15006;48.584;9.186;2023-04-25T01:45:42;4.90;96.40
27567;DHT22;15006;48.584;9.186;2023-04-25T01:48:10;4.90;96.50
27567;DHT22;15006;48.584;9.186;2023-04-25T01:50:38;4.90;96.60
27567;DHT22;15006;48.584;9.186;2023-04-25T01:53:05;4.90;96.60
27567;DHT22;15006;48.584;9.186;2023-04-25T01:55:31;4.80;96.60
27567;DHT22;15006;48.584;9.186;2023-04-25T01:57:57;4.80;96.60
27567;DHT22;15006;48.584;9.186;2023-04-25T02:00:25;4.80;96.40
27567;DHT22;15006;48.584;9.186;2023-04-25T02:02:50;4.80;96.30
27567;DHT22;15006;48.584;9.186;2023-04-25T02:05:19;4.80;96.30
27567;DHT22;15006;48.584;9.186;2023-04-25T02:07:47;4.80;96.20
27567;DHT22;15006;48.584;9.186;2023-04-25T02:10:13;4.80;96.10
27567;DHT22;15006;48.584;9.186;2023-04-25T02:12:39;4.80;96.30
27567;DHT22;15006;48.584;9.186;2023-04-25T02:15:05;4.80;96.20
27567;DHT22;15006;48.584;9.186;2023-04-25T02:17:32;4.80;95.90
27567;DHT22;15006;48.584;9.186;2023-04-25T02:19:58;4.80;95.90
27567;DHT22;15006;48.584;9.186;2023-04-25T02:22:24;4.80;95.90
27567;DHT22;15006;48.584;9.186;2023-04-25T02:24:50;4.70;95.80
27567;DHT22;15006;48.584;9.186;2023-04-25T02:27:16;4.70;95.90
27567;DHT22;15006;48.584;9.186;2023-04-25T02:29:42;4.70;95.90
27567;DHT22;15006;48.584;9.186;2023-04-25T02:32:08;4.70;95.80
27567;DHT22;15006;48.584;9.186;2023-04-25T02:34:34;4.70;95.70
27567;DHT22;15006;48.584;9.186;2023-04-25T02:37:00;4.70;95.60
27567;DHT22;15006;48.584;9.186;2023-04-25T02:39:26;4.70;95.60
27567;DHT22;15006;48.584;9.186;2023-04-25T02:41:53;4.60;95.60
27567;DHT22;15006;48.584;9.186;2023-04-25T02:44:19;4.60;95.50
27567;DHT22;15006;48.584;9.186;2023-04-25T02:46:45;4.60;95.60
27567;DHT22;15006;48.584;9.186;2023-04-25T02:49:11;4.60;95.70
27567;DHT22;15006;48.584;9.186;2023-04-25T02:51:37;4.50;95.70
27567;DHT22;15006;48.584;9.186;2023-04-25T02:54:23;4.50;95.80
27567;DHT22;15006;48.584;9.186;2023-04-25T02:56:52;4.50;96.00
27567;DHT22;15006;48.584;9.186;2023-04-25T02:59:18;4.40;95.80
27567;DHT22;15006;48.584;9.186;2023-04-25T03:01:44;4.40;95.90
27567;DHT22;15006;48.584;9.186;2023-04-25T03:04:10;4.30;96.00
27567;DHT22;15006;48.584;9.186;2023-04-25T03:06:36;4.30;96.20
27567;DHT22;15006;48.584;9.186;2023-04-25T03:09:02;4.30;96.40
27567;DHT22;15006;48.584;9.186;2023-04-25T03:11:29;4.30;96.50
27567;DHT22;15006;48.584;9.186;2023-04-25T03:13:55;4.20;96.70
27567;DHT22;15006;48.584;9.186;2023-04-25T03:16:22;4.20;96.80
27567;DHT22;15006;48.584;9.186;2023-04-25T03:18:48;4.20;96.90
27567;DHT22;15006;48.584;9.186;2023-04-25T03:21:16;4.20;97.00
27567;DHT22;15006;48.584;9.186;2023-04-25T03:23:42;4.20;97.20
27567;DHT22;15006;48.584;9.186;2023-04-25T03:26:08;4.20;97.40
27567;DHT22;15006;48.584;9.186;2023-04-25T03:28:34;4.10;97.60
27567;DHT22;15006;48.584;9.186;2023-04-25T03:31:00;4.10;97.70
27567;DHT22;15006;48.584;9.186;2023-04-25T03:33:26;4.20;97.90
27567;DHT22;15006;48.584;9.186;2023-04-25T03:35:51;4.20;97.90
27567;DHT22;15006;48.584;9.186;2023-04-25T03:38:18;4.20;98.00
27567;DHT22;15006;48.584;9.186;2023-04-25T03:40:44;4.20;98.00
27567;DHT22;15006;48.584;9.186;2023-04-25T03:43:10;4.20;98.00
27567;DHT22;15006;48.584;9.186;2023-04-25T03:45:36;4.30;97.90
27567;DHT22;15006;48.584;9.186;2023-04-25T03:48:03;4.30;97.90
27567;DHT22;15006;48.584;9.186;2023-04-25T03:50:30;4.30;97.90
27567;DHT22;15006;48.584;9.186;2023-04-25T03:52:56;4.30;97.80
27567;DHT22;15006;48.584;9.186;2023-04-25T03:55:22;4.30;97.70
27567;DHT22;15006;48.584;9.186;2023-04-25T03:57:48;4.30;97.60
27567;DHT22;15006;48.584;9.186;2023-04-25T04:00:14;4.20;97.40
27567;DHT22;15006;48.584;9.186;2023-04-25T04:02:40;4.20;97.20
27567;DHT22;15006;48.584;9.186;2023-04-25T04:05:06;4.20;97.10
27567;DHT22;15006;48.584;9.186;2023-04-25T04:07:33;4.20;97.00
27567;DHT22;15006;48.584;9.186;2023-04-25T04:10:02;4.20;96.90
27567;DHT22;15006;48.584;9.186;2023-04-25T04:12:28;4.10;96.80
27567;DHT22;15006;48.584;9.186;2023-04-25T04:14:54;4.10;96.70
27567;DHT22;15006;48.584;9.186;2023-04-25T04:17:20;4.10;96.60
27567;DHT22;15006;48.584;9.186;2023-04-25T04:19:46;4.00;96.50
27567;DHT22;15006;48.584;9.186;2023-04-25T04:22:12;4.00;96.50
27567;DHT22;15006;48.584;9.186;2023-04-25T04:24:38;4.00;96.30
27567;DHT22;15006;48.584;9.186;2023-04-25T04:27:04;3.90;96.30
27567;DHT22;15006;48.584;9.186;2023-04-25T04:29:31;3.90;96.30
27567;DHT22;15006;48.584;9.186;2023-04-25T04:31:57;3.80;96.40
27567;DHT22;15006;48.584;9.186;2023-04-25T04:34:23;3.80;96.70
27567;DHT22;15006;48.584;9.186;2023-04-25T04:36:50;3.70;97.00
27567;DHT22;15006;48.584;9.186;2023-04-25T04:39:16;3.80;97.40
27567;DHT22;15006;48.584;9.186;2023-04-25T04:41:42;3.70;97.50
27567;DHT22;15006;48.584;9.186;2023-04-25T04:44:08;3.70;97.60
27567;DHT22;15006;48.584;9.186;2023-04-25T04:46:34;3.80;97.60
27567;DHT22;15006;48.584;9.186;2023-04-25T04:49:13;3.80;97.60
27567;DHT22;15006;48.584;9.186;2023-04-25T04:51:40;3.80;97.40
27567;DHT22;15006;48.584;9.186;2023-04-25T04:54:06;3.80;97.30
27567;DHT22;15006;48.584;9.186;2023-04-25T04:56:33;3.80;97.20
27567;DHT22;15006;48.584;9.186;2023-04-25T04:58:59;3.80;97.20
27567;DHT22;15006;48.584;9.186;2023-04-25T05:01:26;3.80;97.20
27567;DHT22;15006;48.584;9.186;2023-04-25T05:03:52;3.80;97.30
27567;DHT22;15006;48.584;9.186;2023-04-25T05:06:19;3.90;97.50
27567;DHT22;15006;48.584;9.186;2023-04-25T05:08:45;3.90;97.70
27567;DHT22;15006;48.584;9.186;2023-04-25T05:11:11;3.90;97.90
27567;DHT22;15006;48.584;9.186;2023-04-25T05:13:37;3.90;98.00
27567;DHT22;15006;48.584;9.186;2023-04-25T05:16:03;4.00;98.10
27567;DHT22;15006;48.584;9.186;2023-04-25T05:18:29;4.10;98.10
27567;DHT22;15006;48.584;9.186;2023-04-25T05:20:55;4.10;98.00
27567;DHT22;15006;48.584;9.186;2023-04-25T05:23:21;4.20;98.00
27567;DHT22;15006;48.584;9.186;2023-04-25T05:25:48;4.20;97.90
27567;DHT22;15006;48.584;9.186;2023-04-25T05:28:14;4.30;97.90
27567;DHT22;15006;48.584;9.186;2023-04-25T05:30:40;4.30;97.70
27567;DHT22;15006;48.584;9.186;2023-04-25T05:33:06;4.40;97.50
27567;DHT22;15006;48.584;9.186;2023-04-25T05:35:32;4.40;97.50
27567;DHT22;15006;48.584;9.186;2023-04-25T05:37:59;4.50;97.60
27567;DHT22;15006;48.584;9.186;2023-04-25T05:40:25;4.50;97.80
27567;DHT22;15006;48.584;9.186;2023-04-25T05:42:51;4.60;97.90
27567;DHT22;15006;48.584;9.186;2023-04-25T05:45:17;4.60;98.20
27567;DHT22;15006;48.584;9.186;2023-04-25T05:47:43;4.70;97.70
27567;DHT22;15006;48.584;9.186;2023-04-25T05:50:09;4.70;97.40
27567;DHT22;15006;48.584;9.186;2023-04-25T05:52:36;4.80;97.20
27567;DHT22;15006;48.584;9.186;2023-04-25T05:55:02;4.80;97.10
27567;DHT22;15006;48.584;9.186;2023-04-25T05:57:28;4.90;97.10
27567;DHT22;15006;48.584;9.186;2023-04-25T05:59:55;4.90;97.10
27567;DHT22;15006;48.584;9.186;2023-04-25T06:02:21;5.00;97.00
27567;DHT22;15006;48.584;9.186;2023-04-25T06:04:50;5.10;97.00
27567;DHT22;15006;48.584;9.186;2023-04-25T06:07:18;5.10;96.90
27567;DHT22;15006;48.584;9.186;2023-04-25T06:09:45;5.20;97.10
27567;DHT22;15006;48.584;9.186;2023-04-25T06:12:11;5.30;97.30
27567;DHT22;15006;48.584;9.186;2023-04-25T06:14:37;5.40;97.40
27567;DHT22;15006;48.584;9.186;2023-04-25T06:17:03;5.50;97.20
27567;DHT22;15006;48.584;9.186;2023-04-25T06:19:35;5.60;96.70
27567;DHT22;15006;48.584;9.186;2023-04-25T06:22:01;5.70;96.30
27567;DHT22;15006;48.584;9.186;2023-04-25T06:24:28;5.70;95.90
27567;DHT22;15006;48.584;9.186;2023-04-25T06:26:54;5.70;95.60
27567;DHT22;15006;48.584;9.186;2023-04-25T06:29:20;5.80;95.10
27567;DHT22;15006;48.584;9.186;2023-04-25T06:31:47;5.90;94.80
27567;DHT22;15006;48.584;9.186;2023-04-25T06:34:13;5.90;94.80
27567;DHT22;15006;48.584;9.186;2023-04-25T06:36:38;5.90;94.60
27567;DHT22;15006;48.584;9.186;2023-04-25T06:39:04;5.90;94.60
27567;DHT22;15006;48.584;9.186;2023-04-25T06:41:31;6.00;94.50
27567;DHT22;15006;48.584;9.186;2023-04-25T06:43:57;6.00;94.40
27567;DHT22;15006;48.584;9.186;2023-04-25T06:46:23;6.00;94.40
27567;DHT22;15006;48.584;9.186;2023-04-25T06:48:49;6.00;94.30
27567;DHT22;15006;48.584;9.186;2023-04-25T06:51:15;6.10;94.20
27567;DHT22;15006;48.584;9.186;2023-04-25T06:53:41;6.10;93.60
27567;DHT22;15006;48.584;9.186;2023-04-25T06:56:07;6.00;93.10
27567;DHT22;15006;48.584;9.186;2023-04-25T06:58:33;6.00;93.00
27567;DHT22;15006;48.584;9.186;2023-04-25T07:00:59;6.00;92.60
27567;DHT22;15006;48.584;9.186;2023-04-25T07:03:26;6.00;92.70
27567;DHT22;15006;48.584;9.186;2023-04-25T07:05:52;5.90;92.70
27567;DHT22;15006;48.584;9.186;2023-04-25T07:08:18;5.90;92.60
27567;DHT22;15006;48.584;9.186;2023-04-25T07:10:44;5.90;92.50
27567;DHT22;15006;48.584;9.186;2023-04-25T07:13:11;5.80;92.40
27567;DHT22;15006;48.584;9.186;2023-04-25T07:15:37;5.70;92.50
27567;DHT22;15006;48.584;9.186;2023-04-25T07:18:03;5.70;92.90
27567;DHT22;15006;48.584;9.186;2023-04-25T07:20:29;5.60;93.20
27567;DHT22;15006;48.584;9.186;2023-04-25T07:22:57;5.60;93.40
27567;DHT22;15006;48.584;9.186;2023-04-25T07:25:23;5.50;93.40
27567;DHT22;15006;48.584;9.186;2023-04-25T07:27:49;5.50;93.40
27567;DHT22;15006;48.584;9.186;2023-04-25T07:30:15;5.40;93.60
27567;DHT22;15006;48.584;9.186;2023-04-25T07:32:41;5.30;93.90
27567;DHT22;15006;48.584;9.186;2023-04-25T07:35:07;5.30;94.10
27567;DHT22;15006;48.584;9.186;2023-04-25T07:37:35;5.20;94.20
27567;DHT22;15006;48.584;9.186;2023-04-25T07:40:02;5.20;94.50
27567;DHT22;15006;48.584;9.186;2023-04-25T07:42:30;5.10;94.70
27567;DHT22;15006;48.584;9.186;2023-04-25T07:44:56;5.00;94.90
27567;DHT22;15006;48.584;9.186;2023-04-25T07:47:22;5.00;95.30
27567;DHT22;15006;48.584;9.186;2023-04-25T07:49:49;5.00;95.70
27567;DHT22;15006;48.584;9.186;2023-04-25T07:52:15;4.90;95.80
27567;DHT22;15006;48.584;9.186;2023-04-25T07:54:41;4.90;95.90
27567;DHT22;15006;48.584;9.186;2023-04-25T07:57:07;4.80;96.30
27567;DHT22;15006;48.584;9.186;2023-04-25T07:59:34;4.80;96.60
27567;DHT22;15006;48.584;9.186;2023-04-25T08:02:01;4.80;97.10
27567;DHT22;15006;48.584;9.186;2023-04-25T08:04:28;4.80;97.60
27567;DHT22;15006;48.584;9.186;2023-04-25T08:06:54;4.70;98.20
27567;DHT22;15006;48.584;9.186;2023-04-25T08:09:20;4.70;98.60
27567;DHT22;15006;48.584;9.186;2023-04-25T08:11:47;4.70;98.40
27567;DHT22;15006;48.584;9.186;2023-04-25T08:14:13;4.70;98.60
27567;DHT22;15006;48.584;9.186;2023-04-25T08:16:39;4.70;98.60
27567;DHT22;15006;48.584;9.186;2023-04-25T08:19:05;4.70;98.40
27567;DHT22;15006;48.584;9.186;2023-04-25T08:21:31;4.70;98.60
27567;DHT22;15006;48.584;9.186;2023-04-25T08:23:58;4.70;99.00
27567;DHT22;15006;48.584;9.186;2023-04-25T08:26:24;4.70;99.00
27567;DHT22;15006;48.584;9.186;2023-04-25T08:28:51;4.70;98.80
27567;DHT22;15006;48.584;9.186;2023-04-25T08:31:17;4.70;98.50
27567;DHT22;15006;48.584;9.186;2023-04-25T08:33:43;4.70;98.70
27567;DHT22;15006;48.584;9.186;2023-04-25T08:36:10;4.70;99.30
27567;DHT22;15006;48.584;9.186;2023-04-25T08:38:36;4.70;99.60
27567;DHT22;15006;48.584;9.186;2023-04-25T08:41:03;4.70;99.50
27567;DHT22;15006;48.584;9.186;2023-04-25T08:43:30;4.60;99.60
27567;DHT22;15006;48.584;9.186;2023-04-25T08:46:00;4.60;99.80
27567;DHT22;15006;48.584;9.186;2023-04-25T08:48:32;4.60;99.90
27567;DHT22;15006;48.584;9.186;2023-04-25T08:51:01;4.60;99.90
27567;DHT22;15006;48.584;9.186;2023-04-25T08:53:32;4.60;99.90
27567;DHT22;15006;48.584;9.186;2023-04-25T08:56:01;4.60;99.90
27567;DHT22;15006;48.584;9.186;2023-04-25T08:58:28;4.60;99.90
27567;DHT22;15006;48.584;9.186;2023-04-25T09:00:55;4.70;99.90
27567;DHT22;15006;48.584;9.186;2023-04-25T09:03:21;4.60;99.90
27567;DHT22;15006;48.584;9.186;2023-04-25T09:05:47;4.60;99.90
27567;DHT22;15006;48.584;9.186;2023-04-25T09:08:13;4.60;99.90
27567;DHT22;15006;48.584;9.186;2023-04-25T09:10:40;4.60;99.90
27567;DHT22;15006;48.584;9.186;2023-04-25T09:13:11;4.50;99.90
27567;DHT22;15006;48.584;9.186;2023-04-25T09:15:51;4.50;99.90
27567;DHT22;15006;48.584;9.186;2023-04-25T09:18:28;4.50;99.90
27567;DHT22;15006;48.584;9.186;2023-04-25T09:21:07;4.40;99.90
27567;DHT22;15006;48.584;9.186;2023-04-25T09:23:46;4.30;99.90
27567;DHT22;15006;48.584;9.186;2023-04-25T09:26:17;4.30;99.90
27567;DHT22;15006;48.584;9.186;2023-04-25T09:28:45;4.30;99.90
27567;DHT22;15006;48.584;9.186;2023-04-25T09:31:22;4.20;99.90
27567;DHT22;15006;48.584;9.186;2023-04-25T09:33:50;4.10;99.90
27567;DHT22;15006;48.584;9.186;2023-04-25T09:36:16;4.10;99.90
27567;DHT22;15006;48.584;9.186;2023-04-25T09:38:43;4.00;99.90
27567;DHT22;15006;48.584;9.186;2023-04-25T09:41:11;4.00;99.90
27567;DHT22;15006;48.584;9.186;2023-04-25T09:43:38;4.00;99.90
27567;DHT22;15006;48.584;9.186;2023-04-25T09:46:09;3.90;99.90
27567;DHT22;15006;48.584;9.186;2023-04-25T09:48:37;3.90;99.90
27567;DHT22;15006;48.584;9.186;2023-04-25T09:53:30;3.90;99.90
27567;DHT22;15006;48.584;9.186;2023-04-25T09:55:59;4.00;99.90
27567;DHT22;15006;48.584;9.186;2023-04-25T09:58:29;4.00;99.90
27567;DHT22;15006;48.584;9.186;2023-04-25T10:01:00;4.00;99.90
27567;DHT22;15006;48.584;9.186;2023-04-25T10:03:32;4.00;99.90
27567;DHT22;15006;48.584;9.186;2023-04-25T10:06:01;4.00;99.90
27567;DHT22;15006;48.584;9.186;2023-04-25T10:08:32;4.00;99.90
27567;DHT22;15006;48.584;9.186;2023-04-25T10:11:02;4.00;99.90
27567;DHT22;15006;48.584;9.186;2023-04-25T10:13:30;4.00;99.90
27567;DHT22;15006;48.584;9.186;2023-04-25T10:16:03;3.90;99.90
27567;DHT22;15006;48.584;9.186;2023-04-25T10:18:31;3.90;99.90
27567;DHT22;15006;48.584;9.186;2023-04-25T10:21:00;3.90;99.90
27567;DHT22;15006;48.584;9.186;2023-04-25T10:23:29;3.80;99.90
27567;DHT22;15006;48.584;9.186;2023-04-25T10:25:57;3.80;99.90
27567;DHT22;15006;48.584;9.186;2023-04-25T10:28:24;3.80;99.90
27567;DHT22;15006;48.584;9.186;2023-04-25T10:31:04;3.60;99.90
27567;DHT22;15006;48.584;9.186;2023-04-25T10:33:39;3.60;99.90
27567;DHT22;15006;48.584;9.186;2023-04-25T10:36:18;3.60;99.90
27567;DHT22;15006;48.584;9.186;2023-04-25T10:38:48;3.50;99.90
27567;DHT22;15006;48.584;9.186;2023-04-25T10:41:18;3.50;99.90
27567;DHT22;15006;48.584;9.186;2023-04-25T10:43:47;3.40;99.90
27567;DHT22;15006;48.584;9.186;2023-04-25T10:46:16;3.30;99.90
27567;DHT22;15006;48.584;9.186;2023-04-25T10:48:47;3.30;99.90
27567;DHT22;15006;48.584;9.186;2023-04-25T10:51:25;3.20;99.90
27567;DHT22;15006;48.584;9.186;2023-04-25T10:53:57;3.20;99.90
27567;DHT22;15006;48.584;9.186;2023-04-25T10:56:26;3.20;99.90
27567;DHT22;15006;48.584;9.186;2023-04-25T10:59:19;3.20;99.90
27567;DHT22;15006;48.584;9.186;2023-04-25T11:01:50;3.20;99.90
27567;DHT22;15006;48.584;9.186;2023-04-25T11:04:23;3.20;99.90
27567;DHT22;15006;48.584;9.186;2023-04-25T11:07:05;3.20;99.90
27567;DHT22;15006;48.584;9.186;2023-04-25T11:09:39;3.20;99.90
27567;DHT22;15006;48.584;9.186;2023-04-25T11:12:08;3.20;99.90
27567;DHT22;15006;48.584;9.186;2023-04-25T11:14:35;3.20;99.90
27567;DHT22;15006;48.584;9.186;2023-04-25T11:17:01;3.20;99.90
27567;DHT22;15006;48.584;9.186;2023-04-25T11:19:28;3.20;99.90
27567;DHT22;15006;48.584;9.186;2023-04-25T11:21:56;3.20;99.90
27567;DHT22;15006;48.584;9.186;2023-04-25T11:24:31;3.20;99.90
27567;DHT22;15006;48.584;9.186;2023-04-25T11:26:59;3.30;99.90
27567;DHT22;15006;48.584;9.186;2023-04-25T11:29:29;3.30;99.90
27567;DHT22;15006;48.584;9.186;2023-04-25T11:31:56;3.30;99.90
27567;DHT22;15006;48.584;9.186;2023-04-25T11:34:28;3.40;99.90
27567;DHT22;15006;48.584;9.186;2023-04-25T11:36:59;3.40;99.90
27567;DHT22;15006;48.584;9.186;2023-04-25T11:39:27;3.40;99.90
27567;DHT22;15006;48.584;9.186;2023-04-25T11:41:55;3.50;99.90
27567;DHT22;15006;48.584;9.186;2023-04-25T11:44:21;3.50;99.90
27567;DHT22;15006;48.584;9.186;2023-04-25T11:46:48;3.60;99.90
27567;DHT22;15006;48.584;9.186;2023-04-25T11:49:14;3.60;99.90
27567;DHT22;15006;48.584;9.186;2023-04-25T11:51:45;3.60;99.90
27567;DHT22;15006;48.584;9.186;2023-04-25T11:54:13;3.60;99.90
27567;DHT22;15006;48.584;9.186;2023-04-25T11:56:43;3.70;99.90
27567;DHT22;15006;48.584;9.186;2023-04-25T11:59:10;3.70;99.90
27567;DHT22;15006;48.584;9.186;2023-04-25T12:01:39;3.70;99.90
27567;DHT22;15006;48.584;9.186;2023-04-25T12:04:17;3.80;99.90
27567;DHT22;15006;48.584;9.186;2023-04-25T12:06:45;3.80;99.90
27567;DHT22;15006;48.584;9.186;2023-04-25T12:09:18;3.80;99.90
27567;DHT22;15006;48.584;9.186;2023-04-25T12:11:57;3.80;99.90
27567;DHT22;15006;48.584;9.186;2023-04-25T12:14:29;3.80;99.90
27567;DHT22;15006;48.584;9.186;2023-04-25T12:16:59;3.80;99.90
27567;DHT22;15006;48.584;9.186;2023-04-25T12:19:32;3.70;99.90
27567;DHT22;15006;48.584;9.186;2023-04-25T12:22:00;3.70;99.90
27567;DHT22;15006;48.584;9.186;2023-04-25T12:24:29;3.70;99.90
27567;DHT22;15006;48.584;9.186;2023-04-25T12:27:04;3.70;99.90
27567;DHT22;15006;48.584;9.186;2023-04-25T12:29:33;3.60;99.90
27567;DHT22;15006;48.584;9.186;2023-04-25T12:32:00;3.70;99.90
27567;DHT22;15006;48.584;9.186;2023-04-25T12:34:28;3.60;99.90
27567;DHT22;15006;48.584;9.186;2023-04-25T12:36:54;3.70;99.90
27567;DHT22;15006;48.584;9.186;2023-04-25T12:39:24;3.70;99.90
27567;DHT22;15006;48.584;9.186;2023-04-25T12:41:53;3.70;99.90
27567;DHT22;15006;48.584;9.186;2023-04-25T12:44:21;3.80;99.90
27567;DHT22;15006;48.584;9.186;2023-04-25T12:46:48;3.90;99.90
27567;DHT22;15006;48.584;9.186;2023-04-25T12:49:14;4.00;99.90
27567;DHT22;15006;48.584;9.186;2023-04-25T12:51:40;4.20;99.90
27567;DHT22;15006;48.584;9.186;2023-04-25T12:54:07;4.30;99.90
27567;DHT22;15006;48.584;9.186;2023-04-25T12:56:34;4.50;99.90
27567;DHT22;15006;48.584;9.186;2023-04-25T12:59:02;4.60;99.90
27567;DHT22;15006;48.584;9.186;2023-04-25T13:01:31;4.70;99.90
27567;DHT22;15006;48.584;9.186;2023-04-25T13:03:57;4.80;99.90
27567;DHT22;15006;48.584;9.186;2023-04-25T13:06:23;4.90;99.90
27567;DHT22;15006;48.584;9.186;2023-04-25T13:08:49;5.00;99.90
27567;DHT22;15006;48.584;9.186;2023-04-25T13:11:16;5.00;99.90
27567;DHT22;15006;48.584;9.186;2023-04-25T13:13:42;5.10;99.90
27567;DHT22;15006;48.584;9.186;2023-04-25T13:16:09;5.20;99.90
27567;DHT22;15006;48.584;9.186;2023-04-25T13:18:35;5.30;99.90
27567;DHT22;15006;48.584;9.186;2023-04-25T13:21:02;5.40;99.90
27567;DHT22;15006;48.584;9.186;2023-04-25T13:23:29;5.40;99.90
27567;DHT22;15006;48.584;9.186;2023-04-25T13:25:56;5.50;99.90
27567;DHT22;15006;48.584;9.186;2023-04-25T13:28:27;5.60;99.90
27567;DHT22;15006;48.584;9.186;2023-04-25T13:30:54;5.80;99.90
27567;DHT22;15006;48.584;9.186;2023-04-25T13:33:20;5.90;99.90
27567;DHT22;15006;48.584;9.186;2023-04-25T13:35:48;6.00;99.90
27567;DHT22;15006;48.584;9.186;2023-04-25T13:38:23;6.20;99.90
27567;DHT22;15006;48.584;9.186;2023-04-25T13:40:51;6.30;99.90
27567;DHT22;15006;48.584;9.186;2023-04-25T13:43:20;6.50;99.90
27567;DHT22;15006;48.584;9.186;2023-04-25T13:45:50;6.80;99.90
27567;DHT22;15006;48.584;9.186;2023-04-25T13:48:18;7.10;99.90
27567;DHT22;15006;48.584;9.186;2023-04-25T13:50:44;7.30;99.90
27567;DHT22;15006;48.584;9.186;2023-04-25T13:53:11;7.50;99.90
27567;DHT22;15006;48.584;9.186;2023-04-25T13:55:37;7.80;99.90
27567;DHT22;15006;48.584;9.186;2023-04-25T13:58:04;7.90;99.90
27567;DHT22;15006;48.584;9.186;2023-04-25T14:00:37;8.00;99.90
27567;DHT22;15006;48.584;9.186;2023-04-25T14:03:04;8.10;99.90
27567;DHT22;15006;48.584;9.186;2023-04-25T14:05:33;8.20;99.90
27567;DHT22;15006;48.584;9.186;2023-04-25T14:08:05;8.20;99.90
27567;DHT22;15006;48.584;9.186;2023-04-25T14:10:31;8.20;99.90
27567;DHT22;15006;48.584;9.186;2023-04-25T14:12:57;8.20;99.90
27567;DHT22;15006;48.584;9.186;2023-04-25T14:15:24;8.20;99.90
27567;DHT22;15006;48.584;9.186;2023-04-25T14:17:51;8.30;99.90
27567;DHT22;15006;48.584;9.186;2023-04-25T14:20:17;8.50;99.90
27567;DHT22;15006;48.584;9.186;2023-04-25T14:22:45;8.60;99.90
27567;DHT22;15006;48.584;9.186;2023-04-25T14:25:11;8.80;99.90
27567;DHT22;15006;48.584;9.186;2023-04-25T14:27:38;8.90;99.90
27567;DHT22;15006;48.584;9.186;2023-04-25T14:30:05;8.90;99.70
27567;DHT22;15006;48.584;9.186;2023-04-25T14:32:34;8.80;99.90
27567;DHT22;15006;48.584;9.186;2023-04-25T14:35:00;8.80;99.20
27567;DHT22;15006;48.584;9.186;2023-04-25T14:37:26;8.70;97.60
27567;DHT22;15006;48.584;9.186;2023-04-25T14:39:52;8.50;97.90
27567;DHT22;15006;48.584;9.186;2023-04-25T14:42:18;8.50;98.00
27567;DHT22;15006;48.584;9.186;2023-04-25T14:44:44;8.30;98.30
27567;DHT22;15006;48.584;9.186;2023-04-25T14:47:11;8.20;97.60
27567;DHT22;15006;48.584;9.186;2023-04-25T14:49:37;8.10;97.60
27567;DHT22;15006;48.584;9.186;2023-04-25T14:52:03;8.00;97.80
27567;DHT22;15006;48.584;9.186;2023-04-25T14:54:29;7.90;98.20
27567;DHT22;15006;48.584;9.186;2023-04-25T14:56:55;7.80;98.80
27567;DHT22;15006;48.584;9.186;2023-04-25T14:59:22;7.80;99.90
27567;DHT22;15006;48.584;9.186;2023-04-25T15:01:50;7.90;99.90
27567;DHT22;15006;48.584;9.186;2023-04-25T15:04:16;8.20;99.90
27567;DHT22;15006;48.584;9.186;2023-04-25T15:06:42;8.30;99.90
27567;DHT22;15006;48.584;9.186;2023-04-25T15:09:09;8.50;99.90
27567;DHT22;15006;48.584;9.186;2023-04-25T15:11:36;8.60;99.90
27567;DHT22;15006;48.584;9.186;2023-04-25T15:14:02;8.60;99.90
27567;DHT22;15006;48.584;9.186;2023-04-25T15:16:29;8.60;99.90
27567;DHT22;15006;48.584;9.186;2023-04-25T15:18:56;8.60;98.40
27567;DHT22;15006;48.584;9.186;2023-04-25T15:21:22;8.50;98.40
27567;DHT22;15006;48.584;9.186;2023-04-25T15:23:48;8.50;99.10
27567;DHT22;15006;48.584;9.186;2023-04-25T15:26:14;8.40;98.90
27567;DHT22;15006;48.584;9.186;2023-04-25T15:28:40;8.40;98.70
27567;DHT22;15006;48.584;9.186;2023-04-25T15:31:07;8.30;98.50
27567;DHT22;15006;48.584;9.186;2023-04-25T15:33:33;8.30;98.50
27567;DHT22;15006;48.584;9.186;2023-04-25T15:35:59;8.20;98.50
27567;DHT22;15006;48.584;9.186;2023-04-25T15:38:25;8.20;97.70
27567;DHT22;15006;48.584;9.186;2023-04-25T15:40:52;8.10;97.50
27567;DHT22;15006;48.584;9.186;2023-04-25T15:43:18;8.10;96.90
27567;DHT22;15006;48.584;9.186;2023-04-25T15:45:44;8.00;97.10
27567;DHT22;15006;48.584;9.186;2023-04-25T15:48:10;8.00;96.40